Time;durP1;ratioP1;P1;durP2;ratioP2;P2;SDS_P1;SDS_P2;PMS_P1;PMS_P2;Temp;Humidity;BMP_temperature;BMP_pressure;BME280_temperature;BME280_humidity;BME280_pressure;Samples;Min_cycle;Max_cycle;Signal;HPM_P1;HPM_P2
2023/06/08 00:01:25;;;;;;;0.10;0.10;;;10.60;99.90;;;;;;5035886;28;20423;-74
2023/06/08 00:03:55;;;;;;;0.20;0.20;;;10.50;99.90;;;;;;5035909;28;20068;-74
2023/06/08 00:06:25;;;;;;;0.20;0.20;;;10.60;99.90;;;;;;5051333;28;20025;-74
2023/06/08 00:08:51;;;;;;;0.20;0.20;;;10.50;99.90;;;;;;5051211;28;20030;-74
2023/06/08 00:11:16;;;;;;;0.20;0.20;;;10.50;99.90;;;;;;5035758;28;20498;-74
2023/06/08 00:13:42;;;;;;;0.20;0.20;;;10.40;99.90;;;;;;5035870;28;20021;-74
2023/06/08 00:16:07;;;;;;;0.20;0.20;;;10.30;99.90;;;;;;5035983;28;20467;-74
2023/06/08 00:18:36;;;;;;;0.10;0.10;;;10.30;99.90;;;;;;5034321;28;20539;-74
2023/06/08 00:21:02;;;;;;;0.15;0.15;;;10.20;99.90;;;;;;5035582;28;20025;-74
2023/06/08 00:23:28;;;;;;;0.13;0.13;;;10.20;99.90;;;;;;5034290;28;20553;-74
2023/06/08 00:25:53;;;;;;;0.20;0.20;;;10.20;99.90;;;;;;5035783;28;20025;-74
2023/06/08 00:28:20;;;;;;;0.20;0.20;;;10.20;99.90;;;;;;5035496;28;20041;-74
2023/06/08 00:30:46;;;;;;;0.20;0.20;;;10.20;99.90;;;;;;5035349;28;20609;-74
2023/06/08 00:33:11;;;;;;;0.20;0.20;;;10.20;99.90;;;;;;5035413;28;20104;-74
2023/06/08 00:35:37;;;;;;;0.25;0.25;;;10.30;99.90;;;;;;5035311;28;20032;-74
2023/06/08 00:38:03;;;;;;;0.20;0.20;;;10.30;99.90;;;;;;5035247;28;20052;-74
2023/06/08 00:40:28;;;;;;;0.20;0.20;;;10.40;99.90;;;;;;5035188;28;20121;-74
2023/06/08 00:42:54;;;;;;;0.10;0.10;;;10.40;99.90;;;;;;5035085;28;20044;-75
2023/06/08 00:45:19;;;;;;;0.20;0.20;;;10.40;99.90;;;;;;5035168;28;20013;-74
2023/06/08 00:47:46;;;;;;;0.20;0.20;;;10.30;99.90;;;;;;5035131;28;20048;-74
2023/06/08 00:50:12;;;;;;;0.20;0.20;;;10.30;99.90;;;;;;5035069;28;20491;-74
2023/06/08 00:52:39;;;;;;;0.20;0.20;;;10.30;99.90;;;;;;5035002;28;20039;-74
2023/06/08 00:55:06;;;;;;;0.20;0.20;;;10.30;99.90;;;;;;5050353;28;20040;-74
2023/06/08 00:57:33;;;;;;;0.20;0.20;;;10.30;99.90;;;;;;5034904;28;20021;-74
2023/06/08 01:00:01;;;;;;;0.10;0.10;;;10.40;99.90;;;;;;5034334;28;20021;-74
2023/06/08 01:02:27;;;;;;;0.20;0.20;;;10.40;99.90;;;;;;5035108;28;20022;-74
2023/06/08 01:04:53;;;;;;;0.20;0.20;;;10.40;99.90;;;;;;5034820;28;20033;-74
2023/06/08 01:07:34;;;;;;;0.20;0.20;;;10.30;99.90;;;;;;5034828;28;20048;-74
2023/06/08 01:10:08;;;;;;;0.10;0.10;;;10.30;99.90;;;;;;5034974;28;20517;-74
2023/06/08 01:12:51;;;;;;;0.20;0.20;;;10.30;99.90;;;;;;5035190;28;20026;-74
2023/06/08 01:15:35;;;;;;;0.20;0.20;;;10.30;99.90;;;;;;5035158;28;20026;-74
2023/06/08 01:18:07;;;;;;;0.20;0.20;;;10.20;99.90;;;;;;5034690;28;20029;-74
2023/06/08 01:21:11;;;;;;;0.20;0.20;;;10.30;99.90;;;;;;5034778;28;20028;-74
2023/06/08 01:24:02;;;;;;;0.30;0.30;;;10.20;99.90;;;;;;5032483;28;20031;-74
2023/06/08 01:26:28;;;;;;;0.20;0.20;;;10.30;99.90;;;;;;5034580;28;20033;-74
2023/06/08 01:28:55;;;;;;;0.20;0.20;;;10.20;99.90;;;;;;5034386;28;20021;-74
2023/06/08 01:31:21;;;;;;;0.20;0.20;;;10.30;99.90;;;;;;5034199;28;20026;-74
2023/06/08 01:33:46;;;;;;;0.20;0.20;;;10.30;99.90;;;;;;5034261;28;20075;-74
2023/06/08 01:36:37;;;;;;;0.20;0.20;;;10.30;99.90;;;;;;5034183;28;20056;-74
2023/06/08 01:39:08;;;;;;;0.20;0.20;;;10.30;99.90;;;;;;5034393;28;20021;-74
2023/06/08 01:41:39;;;;;;;0.30;0.30;;;10.30;99.90;;;;;;5033847;28;20380;-74
2023/06/08 01:44:12;;;;;;;0.20;0.20;;;10.30;99.90;;;;;;5042221;28;20026;-74
2023/06/08 01:46:38;;;;;;;0.20;0.20;;;10.30;99.90;;;;;;5045450;28;20036;-74
2023/06/08 01:49:05;;;;;;;0.20;0.20;;;10.20;99.90;;;;;;5053710;28;20032;-74
2023/06/08 01:51:32;;;;;;;0.20;0.20;;;10.30;99.90;;;;;;5053519;28;20016;-74
2023/06/08 01:54:03;;;;;;;0.10;0.10;;;10.20;99.90;;;;;;5068957;28;20108;-74
2023/06/08 01:56:33;;;;;;;0.20;0.20;;;10.20;99.90;;;;;;5053644;28;20029;-73
2023/06/08 01:58:58;;;;;;;0.20;0.20;;;10.20;99.90;;;;;;5053661;28;20060;-73
2023/06/08 02:01:24;;;;;;;0.10;0.10;;;10.20;99.90;;;;;;5053720;28;20029;-74
2023/06/08 02:03:50;;;;;;;0.20;0.20;;;10.20;99.90;;;;;;5053626;28;20040;-74
2023/06/08 02:06:16;;;;;;;0.20;0.20;;;10.20;99.90;;;;;;5068974;28;20025;-74
2023/06/08 02:08:41;;;;;;;0.15;0.15;;;10.20;99.90;;;;;;5053362;28;20029;-74
2023/06/08 02:11:08;;;;;;;0.15;0.15;;;10.10;99.90;;;;;;5052095;28;20021;-73
2023/06/08 02:13:37;;;;;;;0.20;0.20;;;10.20;99.90;;;;;;5053485;28;20025;-74
2023/06/08 02:16:03;;;;;;;0.20;0.20;;;10.20;99.90;;;;;;5053428;28;20021;-74
2023/06/08 02:18:28;;;;;;;0.20;0.20;;;10.20;99.90;;;;;;5053239;28;20493;-74
2023/06/08 02:20:54;;;;;;;0.20;0.20;;;10.20;99.90;;;;;;5053751;28;20021;-74
2023/06/08 02:23:20;;;;;;;0.20;0.20;;;10.20;99.90;;;;;;5053047;28;20071;-74
2023/06/08 02:25:47;;;;;;;0.20;0.20;;;10.10;99.90;;;;;;5053389;28;20059;-74
2023/06/08 02:28:13;;;;;;;0.20;0.20;;;10.10;99.90;;;;;;5052943;28;20060;-74
2023/06/08 02:30:38;;;;;;;0.20;0.20;;;10.20;99.90;;;;;;5052825;28;20466;-74
2023/06/08 02:33:04;;;;;;;0.20;0.20;;;10.20;99.90;;;;;;5053063;28;20033;-74
2023/06/08 02:35:29;;;;;;;0.20;0.20;;;10.20;99.90;;;;;;5053116;28;20029;-74
2023/06/08 02:37:55;;;;;;;0.20;0.20;;;10.20;99.90;;;;;;5051809;28;20064;-74
2023/06/08 02:40:21;;;;;;;0.20;0.20;;;10.20;99.90;;;;;;5068403;28;20104;-74
2023/06/08 02:42:46;;;;;;;0.20;0.20;;;10.20;99.90;;;;;;5052634;28;20044;-75
2023/06/08 02:45:12;;;;;;;0.30;0.30;;;10.20;99.90;;;;;;5068311;28;20013;-75
2023/06/08 02:47:37;;;;;;;0.20;0.20;;;10.20;99.90;;;;;;5053055;28;20056;-75
2023/06/08 02:50:03;;;;;;;0.20;0.20;;;10.20;99.90;;;;;;5053067;28;20021;-75
2023/06/08 02:52:28;;;;;;;0.30;0.30;;;10.20;99.90;;;;;;5068403;28;20467;-75
2023/06/08 02:54:54;;;;;;;0.20;0.20;;;10.10;99.90;;;;;;5052997;28;20097;-75
2023/06/08 02:57:20;;;;;;;0.10;0.10;;;10.00;99.90;;;;;;5052872;28;20371;-75
2023/06/08 02:59:45;;;;;;;0.20;0.20;;;10.00;99.90;;;;;;5068148;28;20029;-75
2023/06/08 03:02:11;;;;;;;0.20;0.20;;;10.00;99.90;;;;;;5053111;28;20017;-75
2023/06/08 03:04:37;;;;;;;0.20;0.20;;;9.90;99.90;;;;;;5052691;28;20061;-75
2023/06/08 03:07:03;;;;;;;0.17;0.17;;;9.90;99.90;;;;;;5051236;28;20020;-75
2023/06/08 03:09:28;;;;;;;0.20;0.20;;;9.90;99.90;;;;;;5051518;28;20024;-75
2023/06/08 03:11:55;;;;;;;0.15;0.15;;;9.90;99.90;;;;;;5052860;28;20063;-75
2023/06/08 03:14:21;;;;;;;0.20;0.20;;;9.90;99.90;;;;;;5052683;28;20036;-75
2023/06/08 03:16:47;;;;;;;0.20;0.20;;;9.90;99.90;;;;;;5052629;28;20025;-75
2023/06/08 03:19:13;;;;;;;0.20;0.20;;;9.90;99.90;;;;;;5068038;28;20033;-75
2023/06/08 03:21:41;;;;;;;0.10;0.10;;;9.90;99.90;;;;;;5053187;28;20061;-75
2023/06/08 03:24:07;;;;;;;0.20;0.20;;;9.90;99.90;;;;;;5055473;28;20108;-75
2023/06/08 03:26:33;;;;;;;0.20;0.20;;;10.00;99.90;;;;;;5057144;28;20029;-74
2023/06/08 03:28:59;;;;;;;0.20;0.20;;;9.90;99.90;;;;;;5073066;28;20036;-74
2023/06/08 03:31:24;;;;;;;0.20;0.20;;;9.90;99.90;;;;;;5040770;28;20511;-74
2023/06/08 03:33:50;;;;;;;0.20;0.20;;;10.00;99.90;;;;;;5036391;28;20140;-75
2023/06/08 03:36:15;;;;;;;0.20;0.20;;;10.00;99.90;;;;;;5037846;28;20107;-75
2023/06/08 03:38:41;;;;;;;0.20;0.20;;;10.10;99.90;;;;;;5056022;28;20033;-74
2023/06/08 03:41:08;;;;;;;0.10;0.10;;;10.10;99.90;;;;;;5071539;28;20021;-75
2023/06/08 03:43:34;;;;;;;0.15;0.15;;;10.00;99.90;;;;;;5068859;28;20032;-75
2023/06/08 03:46:01;;;;;;;0.10;0.10;;;10.10;99.90;;;;;;5051203;28;20026;-75
2023/06/08 03:48:26;;;;;;;0.20;0.20;;;10.10;99.90;;;;;;5044228;28;20112;-75
2023/06/08 03:50:52;;;;;;;0.20;0.20;;;10.10;99.90;;;;;;5055921;28;20592;-75
2023/06/08 03:53:18;;;;;;;0.20;0.20;;;10.10;99.90;;;;;;5056501;28;20020;-75
2023/06/08 03:55:43;;;;;;;0.30;0.30;;;10.10;99.90;;;;;;5056075;28;20107;-75
2023/06/08 03:58:12;;;;;;;0.20;0.20;;;10.10;99.90;;;;;;5055716;28;20037;-75
2023/06/08 04:00:38;;;;;;;0.15;0.15;;;10.10;99.90;;;;;;5056097;28;20021;-76
2023/06/08 04:03:04;;;;;;;0.20;0.20;;;10.10;99.90;;;;;;5055889;28;20017;-75
2023/06/08 04:05:29;;;;;;;0.25;0.25;;;10.00;99.90;;;;;;5056230;28;20032;-75
2023/06/08 04:07:55;;;;;;;0.15;0.15;;;10.10;99.90;;;;;;5055809;28;20032;-75
2023/06/08 04:10:20;;;;;;;0.20;0.20;;;10.10;99.90;;;;;;5050771;28;20022;-75
2023/06/08 04:12:47;;;;;;;0.17;0.17;;;10.10;99.90;;;;;;5034377;28;20025;-75
2023/06/08 04:15:12;;;;;;;0.20;0.20;;;10.20;99.90;;;;;;5036050;28;20040;-75
2023/06/08 04:17:41;;;;;;;0.20;0.20;;;10.20;99.90;;;;;;5035614;28;20434;-75
2023/06/08 04:20:07;;;;;;;0.20;0.20;;;10.20;99.90;;;;;;5035735;28;20032;-75
2023/06/08 04:22:33;;;;;;;0.20;0.20;;;10.20;99.90;;;;;;5042154;28;20044;-75
2023/06/08 04:24:58;;;;;;;0.10;0.10;;;10.20;99.90;;;;;;5055488;28;20092;-75
2023/06/08 04:27:24;;;;;;;0.20;0.20;;;10.30;99.90;;;;;;5055365;28;20025;-75
2023/06/08 04:29:52;;;;;;;0.20;0.20;;;10.30;99.90;;;;;;5055201;28;20021;-75
2023/06/08 04:32:18;;;;;;;0.17;0.17;;;10.40;99.90;;;;;;5070668;28;20491;-75
2023/06/08 04:34:43;;;;;;;0.20;0.20;;;10.40;99.90;;;;;;5054164;28;20032;-75
2023/06/08 04:37:09;;;;;;;0.20;0.20;;;10.50;99.90;;;;;;5055273;28;20076;-74
2023/06/08 04:39:35;;;;;;;0.20;0.20;;;10.40;99.90;;;;;;5055142;28;20060;-75
2023/06/08 04:42:02;;;;;;;0.20;0.20;;;10.30;99.90;;;;;;5055052;28;20029;-75
2023/06/08 04:44:31;;;;;;;0.20;0.20;;;10.40;99.90;;;;;;5070926;28;20410;-75
2023/06/08 04:46:59;;;;;;;0.20;0.20;;;10.40;99.90;;;;;;5053720;28;20048;-75
2023/06/08 04:49:30;;;;;;;0.20;0.20;;;10.40;99.90;;;;;;5070506;28;20028;-74
2023/06/08 04:51:59;;;;;;;0.20;0.20;;;10.30;99.90;;;;;;5070456;28;20021;-75
2023/06/08 04:54:26;;;;;;;0.10;0.10;;;10.30;99.90;;;;;;5055123;28;20036;-75
2023/06/08 04:56:58;;;;;;;0.10;0.10;;;10.30;99.90;;;;;;5054962;28;20056;-74
2023/06/08 04:59:27;;;;;;;0.10;0.10;;;10.30;99.90;;;;;;5070511;28;20108;-74
2023/06/08 05:01:54;;;;;;;0.10;0.10;;;10.30;99.90;;;;;;5054803;28;20117;-75
2023/06/08 05:04:20;;;;;;;0.20;0.20;;;10.40;99.90;;;;;;5054860;28;20104;-75
2023/06/08 05:06:45;;;;;;;0.20;0.20;;;10.50;99.90;;;;;;5054781;28;20129;-75
2023/06/08 05:09:12;;;;;;;0.20;0.20;;;10.40;99.90;;;;;;5054782;28;20128;-75
2023/06/08 05:11:38;;;;;;;0.10;0.10;;;10.50;99.90;;;;;;5054957;28;20107;-75
2023/06/08 05:14:03;;;;;;;0.20;0.20;;;10.40;99.90;;;;;;5054543;28;20048;-75
2023/06/08 05:16:29;;;;;;;0.20;0.20;;;10.40;99.90;;;;;;5069947;28;20491;-74
2023/06/08 05:18:54;;;;;;;0.20;0.20;;;10.40;99.90;;;;;;5054421;28;20029;-75
2023/06/08 05:21:20;;;;;;;0.20;0.20;;;10.40;99.90;;;;;;5055031;28;20021;-75
2023/06/08 05:23:47;;;;;;;0.20;0.20;;;10.40;99.90;;;;;;5054351;28;20020;-75
2023/06/08 05:26:12;;;;;;;0.10;0.10;;;10.40;99.90;;;;;;5054375;28;20044;-75
2023/06/08 05:28:38;;;;;;;0.20;0.20;;;10.40;99.90;;;;;;5054314;28;20025;-75
2023/06/08 05:31:03;;;;;;;0.10;0.10;;;10.50;99.90;;;;;;5054182;28;20482;-75
2023/06/08 05:33:29;;;;;;;0.20;0.20;;;10.60;99.90;;;;;;5069762;28;20025;-74
2023/06/08 05:35:54;;;;;;;0.20;0.20;;;10.50;99.90;;;;;;5054153;28;20478;-74
2023/06/08 05:38:20;;;;;;;0.20;0.20;;;10.50;99.90;;;;;;5054088;28;20028;-74
2023/06/08 05:40:46;;;;;;;0.20;0.20;;;10.40;99.90;;;;;;5053908;28;20385;-75
2023/06/08 05:43:11;;;;;;;0.20;0.20;;;10.50;99.90;;;;;;5054055;28;20032;-75
2023/06/08 05:45:37;;;;;;;0.20;0.20;;;10.60;99.90;;;;;;5052506;28;20120;-75
2023/06/08 05:48:03;;;;;;;0.20;0.20;;;10.80;99.90;;;;;;5069351;28;20057;-75
2023/06/08 05:50:28;;;;;;;0.10;0.10;;;10.90;99.90;;;;;;5053976;28;20100;-74
2023/06/08 05:52:54;;;;;;;0.20;0.20;;;10.90;99.90;;;;;;5053808;28;20051;-75
2023/06/08 05:55:20;;;;;;;0.20;0.20;;;11.00;99.90;;;;;;5053820;28;20453;-74
2023/06/08 05:57:45;;;;;;;0.20;0.20;;;10.90;99.90;;;;;;5053834;28;20032;-74
2023/06/08 06:00:12;;;;;;;0.20;0.20;;;10.90;99.90;;;;;;5053857;28;20022;-75
2023/06/08 06:02:38;;;;;;;0.20;0.20;;;10.90;99.90;;;;;;5053729;28;20430;-74
2023/06/08 06:05:04;;;;;;;0.30;0.30;;;10.90;99.90;;;;;;5054175;28;20032;-75
2023/06/08 06:07:30;;;;;;;0.20;0.20;;;10.90;99.90;;;;;;5053565;28;20028;-75
2023/06/08 06:09:55;;;;;;;0.20;0.20;;;10.90;99.90;;;;;;5068913;28;20486;-75
2023/06/08 06:12:22;;;;;;;0.20;0.20;;;10.80;99.90;;;;;;5051373;28;20029;-76
2023/06/08 06:14:48;;;;;;;0.20;0.20;;;10.90;99.90;;;;;;5036502;28;20033;-75
2023/06/08 06:17:15;;;;;;;0.20;0.20;;;11.10;99.90;;;;;;5033476;28;20017;-75
2023/06/08 06:19:41;;;;;;;0.20;0.20;;;11.30;99.90;;;;;;5032936;28;20031;-76
2023/06/08 06:22:09;;;;;;;0.20;0.20;;;11.40;99.90;;;;;;5031825;28;20018;-75
2023/06/08 06:24:35;;;;;;;0.20;0.20;;;11.30;99.90;;;;;;5033269;28;20021;-75
2023/06/08 06:27:02;;;;;;;0.30;0.30;;;11.40;99.90;;;;;;5033335;28;20021;-75
2023/06/08 06:29:27;;;;;;;0.10;0.10;;;11.50;99.90;;;;;;5031984;28;20033;-75
2023/06/08 06:31:53;;;;;;;0.20;0.20;;;11.70;99.90;;;;;;5033183;28;20053;-75
2023/06/08 06:34:20;;;;;;;0.20;0.20;;;11.80;99.90;;;;;;5033563;28;20040;-75
2023/06/08 06:36:45;;;;;;;0.20;0.20;;;11.80;99.90;;;;;;5033207;28;20034;-75
2023/06/08 06:39:12;;;;;;;0.20;0.20;;;11.70;99.90;;;;;;5049134;28;20021;-75
2023/06/08 06:41:38;;;;;;;0.20;0.20;;;11.80;99.90;;;;;;5051857;28;20025;-76
2023/06/08 06:44:04;;;;;;;0.20;0.20;;;12.00;99.90;;;;;;5052733;28;20066;-75
2023/06/08 06:46:29;;;;;;;0.10;0.10;;;12.30;99.90;;;;;;5052655;28;20523;-75
2023/06/08 06:48:55;;;;;;;0.20;0.20;;;12.50;99.90;;;;;;5052192;28;20032;-75
2023/06/08 06:51:21;;;;;;;0.10;0.10;;;12.70;99.90;;;;;;5052706;28;20394;-75
2023/06/08 06:53:46;;;;;;;0.20;0.20;;;12.80;99.90;;;;;;5052547;28;20095;-76
2023/06/08 06:56:13;;;;;;;0.20;0.20;;;13.00;99.90;;;;;;5053612;28;20025;-75
2023/06/08 06:58:44;;;;;;;0.10;0.10;;;13.10;99.90;;;;;;5059196;28;20024;-75
2023/06/08 07:01:12;;;;;;;0.20;0.20;;;13.20;99.90;;;;;;5058164;28;20029;-75
2023/06/08 07:03:42;;;;;;;0.10;0.10;;;13.10;99.90;;;;;;5058227;28;20031;-76
2023/06/08 07:06:11;;;;;;;0.20;0.20;;;13.30;99.90;;;;;;5059394;28;20501;-76
2023/06/08 07:08:37;;;;;;;0.20;0.20;;;13.60;99.90;;;;;;5058969;28;20503;-76
2023/06/08 07:11:03;;;;;;;0.20;0.20;;;13.80;99.90;;;;;;5059231;28;20029;-76
2023/06/08 07:13:30;;;;;;;0.10;0.10;;;14.20;99.90;;;;;;5059317;28;20025;-76
2023/06/08 07:15:57;;;;;;;0.20;0.20;;;14.30;99.90;;;;;;5059109;28;20033;-76
2023/06/08 07:18:23;;;;;;;0.10;0.10;;;14.40;99.90;;;;;;5059210;28;20025;-76
2023/06/08 07:20:49;;;;;;;0.20;0.20;;;14.50;99.90;;;;;;5059085;28;20100;-77
2023/06/08 07:23:14;;;;;;;0.20;0.20;;;14.70;99.90;;;;;;5058861;28;20032;-76
2023/06/08 07:25:40;;;;;;;0.17;0.17;;;15.00;99.90;;;;;;5059327;28;20032;-76
2023/06/08 07:28:07;;;;;;;0.20;0.20;;;15.10;99.90;;;;;;5059022;28;20066;-76
2023/06/08 07:30:33;;;;;;;0.20;0.20;;;15.30;99.90;;;;;;5059214;28;20029;-76
2023/06/08 07:32:59;;;;;;;0.10;0.10;;;15.60;99.90;;;;;;5057587;28;20074;-77
2023/06/08 07:35:24;;;;;;;0.10;0.10;;;16.00;99.90;;;;;;5059032;28;20437;-77
2023/06/08 07:37:50;;;;;;;0.10;0.10;;;16.10;99.90;;;;;;5058984;28;20028;-76
2023/06/08 07:40:18;;;;;;;0.10;0.10;;;16.30;99.90;;;;;;5058688;28;20096;-77
2023/06/08 07:42:44;;;;;;;0.20;0.20;;;16.60;99.90;;;;;;5057692;28;20032;-76
2023/06/08 07:45:11;;;;;;;0.20;0.20;;;16.70;99.90;;;;;;5057229;28;20017;-76
2023/06/08 07:47:38;;;;;;;0.15;0.15;;;16.70;99.90;;;;;;5058917;28;20056;-76
2023/06/08 07:50:05;;;;;;;0.20;0.20;;;16.80;99.90;;;;;;5059145;28;20032;-76
2023/06/08 07:52:31;;;;;;;0.20;0.20;;;17.00;99.90;;;;;;5058605;28;20098;-76
2023/06/08 07:54:57;;;;;;;0.10;0.10;;;17.30;99.90;;;;;;5074479;28;20067;-76
2023/06/08 07:57:22;;;;;;;0.10;0.10;;;17.50;99.90;;;;;;5058880;28;20020;-76
2023/06/08 07:59:48;;;;;;;0.20;0.20;;;17.70;99.90;;;;;;5058650;28;20048;-76
2023/06/08 08:02:13;;;;;;;0.10;0.10;;;17.90;99.90;;;;;;5074187;28;20103;-76
2023/06/08 08:04:39;;;;;;;0.10;0.10;;;18.00;99.90;;;;;;5058522;28;20104;-76
2023/06/08 08:07:05;;;;;;;0.10;0.10;;;18.10;99.90;;;;;;5058909;28;20024;-77
2023/06/08 08:09:30;;;;;;;0.10;0.10;;;18.10;99.90;;;;;;5055573;28;20021;-76
2023/06/08 08:11:56;;;;;;;0.10;0.10;;;18.20;99.90;;;;;;5055489;28;20445;-76
2023/06/08 08:14:21;;;;;;;0.10;0.10;;;18.40;99.90;;;;;;5055878;28;20029;-77
2023/06/08 08:16:47;;;;;;;0.10;0.10;;;18.60;99.90;;;;;;5055415;28;20078;-77
2023/06/08 08:19:12;;;;;;;0.10;0.10;;;18.60;99.90;;;;;;5055854;28;20070;-81
2023/06/08 08:21:38;;;;;;;0.10;0.10;;;18.70;99.90;;;;;;5058879;28;20065;-79
2023/06/08 08:24:05;;;;;;;0.13;0.13;;;18.80;99.90;;;;;;5057396;28;20021;-78
2023/06/08 08:26:30;;;;;;;0.10;0.10;;;19.00;99.90;;;;;;5056622;28;20021;-78
2023/06/08 08:28:56;;;;;;;0.10;0.10;;;19.30;99.90;;;;;;5046007;28;20045;-78
2023/06/08 08:31:22;;;;;;;0.15;0.15;;;19.50;99.90;;;;;;5036562;28;20437;-77
2023/06/08 08:33:48;;;;;;;0.10;0.10;;;19.70;99.90;;;;;;5041274;28;20029;-77
2023/06/08 08:36:13;;;;;;;0.10;0.10;;;19.70;99.90;;;;;;5052174;28;20089;-77
2023/06/08 08:38:42;;;;;;;0.10;0.10;;;19.70;99.90;;;;;;5035625;28;20184;-77
2023/06/08 08:41:12;;;;;;;0.10;0.10;;;19.80;99.90;;;;;;5072298;28;20036;-78
2023/06/08 08:44:09;;;;;;;0.10;0.10;;;20.20;99.90;;;;;;5054973;28;20120;-75
2023/06/08 08:46:37;;;;;;;0.10;0.10;;;20.60;99.90;;;;;;5032826;28;20502;-76
2023/06/08 08:49:08;;;;;;;0.10;0.10;;;20.60;99.90;;;;;;5037953;28;20025;-78
2023/06/08 08:51:38;;;;;;;0.10;0.10;;;20.40;99.90;;;;;;5035443;28;20029;-77
2023/06/08 08:54:04;;;;;;;0.10;0.10;;;20.50;99.90;;;;;;5033856;28;20411;-77
2023/06/08 08:56:36;;;;;;;0.10;0.10;;;20.50;99.90;;;;;;5033969;28;20446;-77
2023/06/08 08:59:04;;;;;;;0.10;0.10;;;20.50;99.90;;;;;;5038536;28;20025;-76
2023/06/08 09:01:32;;;;;;;0.10;0.10;;;20.50;99.90;;;;;;5053561;28;20025;-75
2023/06/08 09:03:58;;;;;;;0.10;0.10;;;20.60;99.90;;;;;;5054801;28;20025;-76
2023/06/08 09:06:24;;;;;;;0.10;0.10;;;20.90;99.90;;;;;;5054660;28;20056;-76
2023/06/08 09:08:49;;;;;;;0.10;0.10;;;20.90;99.90;;;;;;5070004;28;20068;-76
2023/06/08 09:11:16;;;;;;;0.10;0.10;;;20.90;99.90;;;;;;5054581;28;20028;-76
2023/06/08 09:13:42;;;;;;;0.05;0.05;;;20.90;99.90;;;;;;5054585;28;20025;-77
2023/06/08 09:16:10;;;;;;;0.10;0.10;;;20.90;99.90;;;;;;5054745;28;20032;-77
2023/06/08 09:18:37;;;;;;;0.10;0.10;;;21.00;99.90;;;;;;5054077;28;20483;-78
2023/06/08 09:21:28;;;;;;;0.10;0.10;;;21.00;99.90;;;;;;5054136;28;20028;-77
2023/06/08 09:24:14;;;;;;;0.05;0.05;;;21.30;99.90;;;;;;5053889;28;20033;-76
2023/06/08 09:26:47;;;;;;;0.00;0.00;;;21.30;99.90;;;;;;5056055;28;20021;-75
2023/06/08 09:29:40;;;;;;;0.08;0.08;;;21.30;99.90;;;;;;5054291;28;20039;-77
2023/06/08 09:32:08;;;;;;;0.10;0.10;;;21.70;99.90;;;;;;5054319;28;20033;-77
2023/06/08 09:34:49;;;;;;;0.08;0.08;;;21.70;99.90;;;;;;5069198;28;20052;-77
2023/06/08 09:37:14;;;;;;;0.10;0.10;;;21.60;99.90;;;;;;5054269;28;20017;-77
2023/06/08 09:39:41;;;;;;;0.00;0.00;;;21.70;99.90;;;;;;5052413;28;20514;-77
2023/06/08 09:42:08;;;;;;;0.00;0.00;;;22.00;99.90;;;;;;5053311;28;20387;-77
2023/06/08 09:44:35;;;;;;;0.10;0.10;;;21.90;99.90;;;;;;5054015;28;20029;-77
2023/06/08 09:47:19;;;;;;;0.10;0.10;;;22.10;99.90;;;;;;5054290;28;20024;-77
2023/06/08 09:49:45;;;;;;;0.10;0.10;;;22.30;99.90;;;;;;5054441;28;20029;-77
2023/06/08 09:52:10;;;;;;;0.05;0.05;;;22.60;99.90;;;;;;5053944;28;20497;-77
2023/06/08 09:54:36;;;;;;;0.08;0.08;;;22.80;99.90;;;;;;5054091;28;20091;-77
2023/06/08 09:57:04;;;;;;;0.10;0.10;;;23.00;99.90;;;;;;5054663;28;20024;-76
2023/06/08 09:59:44;;;;;;;0.10;0.10;;;22.90;99.90;;;;;;5054206;28;20021;-77
2023/06/08 10:02:30;;;;;;;0.10;0.10;;;22.70;99.90;;;;;;5054466;28;20025;-77
2023/06/08 10:05:01;;;;;;;0.10;0.10;;;22.70;99.90;;;;;;5054028;28;20083;-77
2023/06/08 10:07:29;;;;;;;0.00;0.00;;;22.60;99.90;;;;;;5070564;28;20026;-77
2023/06/08 10:10:08;;;;;;;0.00;0.00;;;22.60;99.90;;;;;;5071565;28;20025;-78
2023/06/08 10:12:33;;;;;;;0.10;0.10;;;22.60;99.90;;;;;;5056067;28;20487;-77
2023/06/08 10:15:00;;;;;;;0.10;0.10;;;22.50;99.90;;;;;;5055167;28;20112;-77
2023/06/08 10:17:27;;;;;;;0.10;0.10;;;22.60;99.90;;;;;;5054781;28;20025;-77
2023/06/08 10:19:53;;;;;;;0.08;0.08;;;22.60;99.90;;;;;;5069736;28;20506;-77
2023/06/08 10:22:19;;;;;;;0.10;0.10;;;22.80;99.90;;;;;;5053995;28;20017;-76
2023/06/08 10:24:48;;;;;;;0.10;0.10;;;22.80;99.90;;;;;;5059878;28;20028;-77
2023/06/08 10:27:24;;;;;;;0.05;0.05;;;22.80;99.90;;;;;;5058895;28;20096;-78
2023/06/08 10:29:58;;;;;;;0.00;0.00;;;22.60;99.90;;;;;;5074475;28;20087;-78
2023/06/08 10:32:39;;;;;;;0.00;0.00;;;22.40;99.90;;;;;;5060003;28;20025;-78
2023/06/08 10:35:07;;;;;;;0.10;0.10;;;22.60;99.90;;;;;;5059762;28;20025;-77
2023/06/08 10:37:35;;;;;;;0.10;0.10;;;22.50;99.90;;;;;;5048124;28;20036;-78
2023/06/08 10:40:08;;;;;;;0.10;0.10;;;22.70;99.90;;;;;;5038344;28;20074;-78
2023/06/08 10:42:34;;;;;;;0.10;0.10;;;22.70;99.90;;;;;;5040229;28;20029;-78
2023/06/08 10:45:02;;;;;;;0.10;0.10;;;22.90;99.90;;;;;;5037746;28;20031;-78
2023/06/08 10:47:31;;;;;;;0.00;0.00;;;23.00;99.90;;;;;;5039939;28;20428;-78
2023/06/08 10:50:01;;;;;;;0.10;0.10;;;23.30;99.90;;;;;;5039981;28;20017;-78
2023/06/08 10:52:28;;;;;;;0.00;0.00;;;23.60;99.90;;;;;;5041055;28;20395;-78
2023/06/08 10:54:59;;;;;;;0.08;0.08;;;23.40;99.90;;;;;;5040677;28;20053;-77
2023/06/08 10:57:34;;;;;;;0.10;0.10;;;23.10;99.90;;;;;;5042627;28;20032;-78
2023/06/08 10:59:59;;;;;;;0.00;0.00;;;23.00;99.90;;;;;;5039548;28;20088;-78
2023/06/08 11:02:28;;;;;;;0.10;0.10;;;23.00;99.90;;;;;;5041318;28;20025;-78
2023/06/08 11:04:53;;;;;;;0.10;0.10;;;23.20;99.90;;;;;;5036557;28;20501;-77
2023/06/08 11:07:23;;;;;;;0.00;0.00;;;23.50;99.90;;;;;;5031815;28;20021;-77
2023/06/08 11:09:49;;;;;;;0.00;0.00;;;23.80;99.90;;;;;;5032949;28;20018;-77
2023/06/08 11:12:15;;;;;;;0.00;0.00;;;23.70;99.90;;;;;;5032822;28;20483;-77
2023/06/08 11:14:40;;;;;;;0.00;0.00;;;23.70;99.90;;;;;;5032898;28;20026;-77
2023/06/08 11:17:06;;;;;;;0.00;0.00;;;23.60;99.90;;;;;;5032779;28;20535;-77
2023/06/08 11:19:32;;;;;;;0.00;0.00;;;23.50;99.90;;;;;;5032779;28;20391;-77
2023/06/08 11:21:58;;;;;;;0.10;0.10;;;23.30;99.90;;;;;;5032843;28;20368;-77
2023/06/08 11:24:27;;;;;;;0.00;0.00;;;23.30;99.90;;;;;;5032782;28;20025;-76
2023/06/08 11:26:59;;;;;;;0.00;0.00;;;23.40;99.90;;;;;;5032750;28;20023;-76
2023/06/08 11:29:28;;;;;;;0.10;0.10;;;23.30;99.90;;;;;;5032767;28;20084;-76
2023/06/08 11:32:08;;;;;;;0.00;0.00;;;23.50;99.90;;;;;;5032664;28;20057;-77
2023/06/08 11:34:33;;;;;;;0.08;0.08;;;23.30;99.90;;;;;;5033333;28;20453;-76
2023/06/08 11:37:00;;;;;;;0.08;0.08;;;23.70;99.90;;;;;;5031409;28;20061;-76
2023/06/08 11:39:29;;;;;;;0.00;0.00;;;24.00;99.90;;;;;;5032818;28;20036;-76
2023/06/08 11:41:55;;;;;;;0.00;0.00;;;23.90;99.90;;;;;;5032432;28;20399;-76
2023/06/08 11:44:20;;;;;;;0.00;0.00;;;23.70;99.90;;;;;;5036109;28;20033;-76
2023/06/08 11:46:46;;;;;;;0.00;0.00;;;23.70;99.90;;;;;;5036341;28;20029;-76
2023/06/08 11:49:12;;;;;;;0.05;0.05;;;23.70;99.90;;;;;;5036300;28;20026;-76
2023/06/08 11:51:49;;;;;;;0.00;0.00;;;23.90;99.90;;;;;;5036209;28;20025;-75
2023/06/08 11:54:15;;;;;;;0.00;0.00;;;24.40;99.90;;;;;;5036224;28;20026;-76
2023/06/08 11:56:45;;;;;;;0.08;0.08;;;24.30;99.90;;;;;;5036172;28;20021;-76
2023/06/08 11:59:23;;;;;;;0.00;0.00;;;24.30;99.90;;;;;;5036095;28;20053;-76
2023/06/08 12:01:59;;;;;;;0.00;0.00;;;24.50;99.90;;;;;;5036118;28;20109;-76
2023/06/08 12:04:32;;;;;;;0.00;0.00;;;24.90;99.90;;;;;;5034843;28;20491;-76
2023/06/08 12:06:58;;;;;;;0.00;0.00;;;25.10;99.90;;;;;;5036306;28;20033;-75
2023/06/08 12:09:24;;;;;;;0.00;0.00;;;25.20;99.90;;;;;;5035930;28;20399;-76
2023/06/08 12:11:51;;;;;;;0.00;0.00;;;25.10;99.90;;;;;;5035860;28;20032;-76
2023/06/08 12:14:16;;;;;;;0.00;0.00;;;25.20;99.90;;;;;;5034669;28;20033;-76
2023/06/08 12:16:43;;;;;;;0.00;0.00;;;25.50;99.90;;;;;;5036109;28;20026;-75
2023/06/08 12:19:08;;;;;;;0.00;0.00;;;25.70;99.90;;;;;;5034507;28;20104;-76
2023/06/08 12:21:41;;;;;;;0.00;0.00;;;26.00;99.90;;;;;;5035741;28;20068;-76
2023/06/08 12:24:07;;;;;;;0.00;0.00;;;25.90;99.90;;;;;;5051095;28;20026;-76
2023/06/08 12:26:32;;;;;;;0.00;0.00;;;26.10;99.90;;;;;;5051068;28;20017;-75
2023/06/08 12:29:05;;;;;;;0.00;0.00;;;26.10;99.90;;;;;;5035615;28;20033;-76
2023/06/08 12:31:32;;;;;;;0.05;0.05;;;25.80;99.90;;;;;;5050838;28;20029;-76
2023/06/08 12:33:58;;;;;;;0.00;0.00;;;26.10;99.90;;;;;;5035704;28;20036;-75
2023/06/08 12:36:23;;;;;;;0.00;0.00;;;26.30;99.90;;;;;;5035517;28;20368;-75
2023/06/08 12:38:49;;;;;;;0.00;0.00;;;26.30;99.90;;;;;;5035313;28;20514;-75
2023/06/08 12:41:14;;;;;;;0.00;0.00;;;26.50;99.90;;;;;;5033944;28;20030;-75
2023/06/08 12:43:45;;;;;;;0.00;0.00;;;26.80;99.90;;;;;;5035532;28;20025;-75
2023/06/08 12:46:11;;;;;;;0.00;0.00;;;26.70;99.90;;;;;;5035526;28;20486;-76
2023/06/08 12:48:36;;;;;;;0.00;0.00;;;27.00;99.90;;;;;;5035279;28;20104;-75
2023/06/08 12:51:02;;;;;;;0.00;0.00;;;27.10;99.90;;;;;;5035106;28;20071;-75